Saint Peters, Missouri
Current Conditions -  °F | °C
As of 7:54 AM on Friday 19 Dec 2014 (Local Time) from KSUS Reporting Station
Haze Haze  
Wind Chill: 26°   Ceiling: 2800
Heat Index: 32°   Visibility: 6mi
Dew Point: 28°   Wind: 6mph
Humidity: 85%   Direction: 70°ENE
Pressure: 30.3"   Gusts: NA
Location:  38.8°N, 90.63°W
Report Text: KSUS 191354Z 07005KT 6SM BR OVC028 00/M02 A3030 RMK AO2 SLP270 T00001022
Loading
Personal Weather Stations






























Interactive Weather Map New forecast layout! Learn more

10-Day Weather Forecast

Advertisements
Track Severe Weather on mobile